createdAt,value
2023-03-23T15:58:13.104Z,26.90
2023-03-23T16:00:43.887Z,31.75
2023-03-23T16:03:19.929Z,21.95
2023-03-23T16:05:47.560Z,26.85
2023-03-23T16:08:16.174Z,32.48
2023-03-23T16:10:44.538Z,22.55
2023-03-23T16:13:13.986Z,18.65
2023-03-23T16:15:44.346Z,19.15
2023-03-23T16:18:17.764Z,38.78
2023-03-23T16:20:45.723Z,48.73
2023-03-23T16:23:13.532Z,52.85
2023-03-23T16:25:41.454Z,24.75
2023-03-23T16:28:12.972Z,45.33
2023-03-23T16:30:42.092Z,64.60
2023-03-23T16:33:10.123Z,58.98
2023-03-23T16:35:41.175Z,88.90
2023-03-23T16:38:15.962Z,137.12
2023-03-23T16:40:46.430Z,231.55
2023-03-23T16:43:14.514Z,206.53
2023-03-23T16:45:47.650Z,152.87
2023-03-23T16:48:16.922Z,142.47
2023-03-23T16:50:47.009Z,136.52
2023-03-23T16:53:16.082Z,120.75
2023-03-23T16:55:47.912Z,110.60
2023-03-23T16:58:25.741Z,122.65
2023-03-23T17:00:54.029Z,117.17
2023-03-23T17:03:23.628Z,142.13
2023-03-23T17:05:54.635Z,142.10
2023-03-23T17:08:22.705Z,161.85
2023-03-23T17:10:50.625Z,155.75
2023-03-23T17:13:19.814Z,144.93
2023-03-23T17:15:47.727Z,161.65
2023-03-23T17:18:15.874Z,177.25
2023-03-23T17:20:43.847Z,150.57
2023-03-23T17:23:11.996Z,113.25
2023-03-23T17:25:40.197Z,108.35
2023-03-23T17:28:08.126Z,99.45
2023-03-23T17:30:41.515Z,92.78
2023-03-23T17:33:10.746Z,89.28
2023-03-23T17:35:38.299Z,70.62
2023-03-23T17:38:05.996Z,64.15
2023-03-23T17:40:33.999Z,53.40
2023-03-23T17:43:02.084Z,51.77
2023-03-23T17:45:31.211Z,44.25
2023-03-23T17:47:59.500Z,133.85
2023-03-23T17:50:27.404Z,50.23
2023-03-23T17:52:56.354Z,48.05
2023-03-23T17:55:23.914Z,43.25
2023-03-23T17:57:51.795Z,51.73
2023-03-23T18:00:20.657Z,47.08
2023-03-23T18:02:48.264Z,44.25
2023-03-23T18:05:16.370Z,45.58
2023-03-23T18:07:45.928Z,50.58
2023-03-23T18:10:15.707Z,65.67
2023-03-23T18:12:45.364Z,75.65
2023-03-23T18:15:14.908Z,76.87
2023-03-23T18:17:44.585Z,69.20
2023-03-23T18:20:12.618Z,70.52
2023-03-23T18:22:40.143Z,66.85
2023-03-23T18:25:08.217Z,66.15
2023-03-23T18:27:37.491Z,55.35
2023-03-23T18:30:07.468Z,52.62
2023-03-23T18:32:38.613Z,68.10
2023-03-23T18:35:10.512Z,58.48
2023-03-23T18:37:40.953Z,58.02
2023-03-23T18:40:10.891Z,51.50
2023-03-23T18:42:42.094Z,55.52
2023-03-23T18:45:10.473Z,55.80
2023-03-23T18:47:39.272Z,56.25
2023-03-23T18:50:10.998Z,55.98
2023-03-23T18:52:38.982Z,49.90
2023-03-23T18:55:07.352Z,52.58
2023-03-23T18:57:35.356Z,50.03
2023-03-23T19:00:05.620Z,47.38
2023-03-23T19:02:34.969Z,54.33
2023-03-23T19:05:03.054Z,60.78
2023-03-23T19:07:31.489Z,53.20
2023-03-23T19:10:01.517Z,68.28
2023-03-23T19:12:29.218Z,66.05
2023-03-23T19:14:58.092Z,66.47
2023-03-23T19:17:26.511Z,59.13
2023-03-23T19:19:54.646Z,52.90
2023-03-23T19:22:22.601Z,49.53
2023-03-23T19:24:50.708Z,45.55
2023-03-23T19:27:21.045Z,50.28
2023-03-23T19:29:50.653Z,50.15
2023-03-23T19:32:20.037Z,51.20
2023-03-23T19:34:51.013Z,52.33
2023-03-23T19:37:18.747Z,59.00
2023-03-23T19:39:47.650Z,62.73
2023-03-23T19:42:17.422Z,61.23
2023-03-23T19:44:45.242Z,65.78
2023-03-23T19:47:13.594Z,65.85
2023-03-23T19:49:42.006Z,54.75
2023-03-23T19:52:12.670Z,60.05
2023-03-23T19:54:40.911Z,54.73
2023-03-23T19:57:10.029Z,53.40
2023-03-23T19:59:38.372Z,50.95
2023-03-23T20:02:06.888Z,47.17
2023-03-23T20:04:36.040Z,54.42
2023-03-23T20:07:07.435Z,51.55
2023-03-23T20:09:36.822Z,57.90
2023-03-23T20:12:06.434Z,51.37
2023-03-23T20:14:35.379Z,51.15
2023-03-23T20:17:05.472Z,50.70
2023-03-23T20:22:02.584Z,50.92
2023-03-23T20:24:30.713Z,54.63
2023-03-23T20:27:00.686Z,51.02
2023-03-23T20:29:31.574Z,48.10
2023-03-23T20:31:59.500Z,49.53
2023-03-23T20:34:30.437Z,51.60
2023-03-23T20:37:01.466Z,47.40
2023-03-23T20:39:31.601Z,42.75
2023-03-23T20:42:02.927Z,39.50
2023-03-23T20:44:33.438Z,38.58
2023-03-23T20:47:02.821Z,39.33
2023-03-23T20:49:31.550Z,40.05
2023-03-23T20:51:59.866Z,34.67
2023-03-23T20:54:29.772Z,36.98
2023-03-23T20:57:00.677Z,34.45
2023-03-23T20:59:28.629Z,38.98
2023-03-23T21:01:56.503Z,39.05
2023-03-23T21:04:28.338Z,39.23
2023-03-23T21:06:56.485Z,37.75
2023-03-23T21:09:24.816Z,41.45
2023-03-23T21:11:53.785Z,35.13
2023-03-23T21:14:21.880Z,39.15
2023-03-23T21:16:49.724Z,36.85
2023-03-23T21:19:18.935Z,38.92
2023-03-23T21:21:55.301Z,36.68
2023-03-23T21:24:16.944Z,45.90
2023-03-23T21:26:44.884Z,41.65
2023-03-23T21:29:15.443Z,42.48
2023-03-23T21:31:43.929Z,40.85
2023-03-23T21:34:13.440Z,44.10
2023-03-23T21:36:41.413Z,42.70
2023-03-23T21:39:09.950Z,41.18
2023-03-23T21:41:41.974Z,34.18
2023-03-23T21:44:09.728Z,35.45
2023-03-23T21:46:41.642Z,42.08
2023-03-23T21:49:13.128Z,36.93
2023-03-23T21:51:42.836Z,41.63
2023-03-23T21:54:12.090Z,37.10
2023-03-23T21:56:40.068Z,35.60
2023-03-23T21:59:08.582Z,31.10
2023-03-23T22:01:37.138Z,31.97
2023-03-23T22:04:07.342Z,35.00
2023-03-23T22:06:35.357Z,32.28
2023-03-23T22:09:04.816Z,29.80
2023-03-23T22:11:32.988Z,29.30
2023-03-23T22:14:01.506Z,31.95
2023-03-23T22:16:29.873Z,26.35
2023-03-23T22:19:00.355Z,27.62
2023-03-23T22:21:29.960Z,28.70
2023-03-23T22:23:59.990Z,25.68
2023-03-23T22:26:29.555Z,26.82
2023-03-23T22:28:59.769Z,32.67
2023-03-23T22:31:33.295Z,26.80
2023-03-23T22:34:01.760Z,24.10
2023-03-23T22:36:32.808Z,22.40
2023-03-23T22:39:01.648Z,26.87
2023-03-23T22:41:35.019Z,17.57
2023-03-23T22:44:05.636Z,17.25
2023-03-23T22:46:33.669Z,22.22
2023-03-23T22:49:01.994Z,20.68
2023-03-23T22:51:30.184Z,20.90
2023-03-23T22:53:58.225Z,21.48
2023-03-23T22:56:26.109Z,23.87
2023-03-23T22:58:54.208Z,29.77
2023-03-23T23:01:23.075Z,30.00
2023-03-23T23:03:51.306Z,26.05
2023-03-23T23:06:20.540Z,25.52
2023-03-23T23:08:48.890Z,23.77
2023-03-23T23:11:20.859Z,26.02
2023-03-23T23:13:49.733Z,23.70
2023-03-23T23:16:21.124Z,20.85
2023-03-23T23:18:49.300Z,20.20
2023-03-23T23:21:20.786Z,22.75
2023-03-23T23:23:50.655Z,18.90
2023-03-23T23:26:20.046Z,17.32
2023-03-23T23:28:48.341Z,19.27
2023-03-23T23:31:27.281Z,16.17
2023-03-23T23:33:58.694Z,14.60
2023-03-23T23:36:29.257Z,19.05
2023-03-23T23:38:59.135Z,15.50
2023-03-23T23:41:29.500Z,15.50
2023-03-23T23:43:57.416Z,14.38
2023-03-23T23:46:26.051Z,15.88
2023-03-23T23:48:54.036Z,16.25
2023-03-23T23:51:23.741Z,14.70
2023-03-23T23:53:53.011Z,19.65
2023-03-23T23:56:21.816Z,14.58
2023-03-23T23:58:49.655Z,19.45
